Time;durP1;ratioP1;P1;durP2;ratioP2;P2;SDS_P1;SDS_P2;PMS_P1;PMS_P2;Temp;Humidity;BMP_temperature;BMP_pressure;BME280_temperature;BME280_humidity;BME280_pressure;Samples;Min_cycle;Max_cycle;Signal;HPM_P1;HPM_P2
2023/01/02 18:52:25;;;;;;;;;6.50;3.00;;;;;10.93;64.14;102223.31;6263599;22;45489;-77
2023/01/02 18:55:10;;;;;;;;;5.25;5.25;;;;;10.87;63.77;102212.66;6275627;22;45341;-77
2023/01/02 18:57:45;;;;;;;;;4.00;4.00;;;;;10.91;63.87;102218.88;6248262;22;46195;-78
2023/01/02 19:00:24;;;;;;;;;5.25;5.25;;;;;10.97;63.92;102232.16;6248543;22;45549;-79
2023/01/02 19:03:07;;;;;;;;;8.50;7.50;;;;;10.97;63.56;102237.44;6247894;22;45389;-79
2023/01/02 19:05:35;;;;;;;;;4.25;3.75;;;;;10.97;64.19;102235.69;6249608;22;45494;-77
2023/01/02 19:08:06;;;;;;;;;5.00;5.00;;;;;10.97;63.97;102237.44;6277229;22;46476;-78
2023/01/02 19:10:37;;;;;;;;;4.50;3.25;;;;;10.84;64.04;102214.34;6275822;22;45544;-79
2023/01/02 19:13:10;;;;;;;;;5.75;3.75;;;;;10.94;64.44;102245.28;6281159;22;45275;-79
2023/01/02 19:15:46;;;;;;;;;2.00;1.75;;;;;10.93;64.22;102243.50;6279580;22;45520;-79
2023/01/02 19:18:18;;;;;;;;;4.00;4.00;;;;;10.79;64.60;102225.66;6279623;22;46168;-78
2023/01/02 19:20:46;;;;;;;;;2.50;2.50;;;;;10.86;64.70;102234.59;6279081;22;45172;-79
2023/01/02 19:23:59;;;;;;;;;;;;;;;;;;;;;
2023/01/02 19:33:38;;;;;;;;;8.00;4.75;;;;;10.89;65.39;102262.75;6190099;22;45810;-81
2023/01/02 19:36:51;;;;;;;;;;;;;;;;;;;;;
2023/01/02 19:39:24;;;;;;;;;4.25;4.25;;;;;10.87;65.44;102278.50;6276463;22;71911;-80
2023/01/02 19:42:32;;;;;;;;;5.00;5.00;;;;;10.87;65.69;102278.50;6251103;22;47552;-81
2023/01/02 19:45:30;;;;;;;;;5.50;5.50;;;;;10.87;66.04;102277.63;6250885;22;45447;-80
2023/01/02 19:48:56;;;;;;;;;;;;;;;;;;;;;
2023/01/02 19:51:46;;;;;;;;;5.25;5.25;;;;;10.85;65.96;102274.97;6117299;23;71967;-82
2023/01/02 19:54:58;;;;;;;;;6.00;6.00;;;;;10.84;66.11;102281.09;6138378;22;47340;-81
2023/01/02 20:08:46;;;;;;;;;;;;;;;;;;;;;
2023/01/02 20:12:28;;;;;;;;;4.75;3.50;;;;;10.69;66.69;102249.16;6075849;23;72832;-78
2023/01/02 20:13:57;;;;;;;;;6.00;4.00;;;;;10.76;66.70;102265.13;6146375;23;45390;-82
2023/01/02 20:16:22;;;;;;;;;3.75;3.00;;;;;10.78;66.76;102268.69;6185304;22;45372;-80
2023/01/02 20:18:48;;;;;;;;;3.50;3.50;;;;;10.73;67.19;102258.94;6219635;22;46630;-82
2023/01/02 20:21:13;;;;;;;;;4.25;3.50;;;;;10.75;66.99;102257.22;6216113;22;45618;-80
2023/01/02 20:23:41;;;;;;;;;5.50;4.00;;;;;10.74;67.05;102261.56;6186879;22;45658;-80
2023/01/02 20:26:07;;;;;;;;;5.00;4.50;;;;;10.80;67.17;102269.63;6186533;22;45760;-82
2023/01/02 20:28:37;;;;;;;;;5.25;4.25;;;;;10.80;67.64;102274.00;6228024;22;45199;-81
2023/01/02 20:31:02;;;;;;;;;3.50;3.50;;;;;10.68;67.18;102255.31;6185272;22;45336;-81
2023/01/02 20:33:28;;;;;;;;;4.00;3.00;;;;;10.80;67.53;102274.00;6213094;22;45490;-80
2023/01/02 20:35:53;;;;;;;;;5.75;5.75;;;;;10.74;67.49;102264.19;6185980;22;45483;-82
2023/01/02 20:38:18;;;;;;;;;5.00;3.50;;;;;10.70;67.81;102254.47;6185755;22;46659;-82
2023/01/02 20:40:44;;;;;;;;;4.00;3.00;;;;;10.76;67.83;102274.78;6214534;22;45429;-82
2023/01/02 20:43:09;;;;;;;;;3.00;3.00;;;;;10.66;67.86;102260.53;6211564;22;45713;-82
2023/01/02 20:45:35;;;;;;;;;5.25;5.00;;;;;10.74;67.98;102274.75;6185779;22;45669;-82
2023/01/02 20:48:03;;;;;;;;;4.00;3.00;;;;;10.75;67.98;102280.94;6218039;22;45525;-79
2023/01/02 20:50:29;;;;;;;;;2.75;2.75;;;;;10.72;68.13;102280.84;6184679;22;45950;-82
2023/01/02 20:52:54;;;;;;;;;3.00;3.00;;;;;10.65;67.96;102265.78;6213253;22;45397;-81
2023/01/02 20:55:23;;;;;;;;;2.00;2.00;;;;;10.76;68.16;102299.38;6218971;22;45382;-80
2023/01/02 20:57:48;;;;;;;;;4.75;3.00;;;;;10.71;68.43;102297.50;6225603;22;46440;-81
2023/01/02 21:00:14;;;;;;;;;5.25;4.00;;;;;10.66;68.14;102286.88;6213011;22;44649;-82
2023/01/02 21:02:40;;;;;;;;;4.25;4.25;;;;;10.70;68.13;102294.00;6189879;22;45368;-82
2023/01/02 21:05:06;;;;;;;;;5.25;3.75;;;;;10.69;68.48;102297.50;6218334;22;45334;-82
2023/01/02 21:07:31;;;;;;;;;5.50;4.75;;;;;10.57;68.60;102281.41;6162119;22;48555;-82
2023/01/02 21:10:02;;;;;;;;;4.75;3.00;;;;;10.56;69.03;102282.28;6184950;22;45706;-82
2023/01/02 21:15:40;;;;;;;;;3.25;3.25;;;;;10.64;68.84;102301.78;6217009;22;45472;-81
2023/01/02 21:17:59;;;;;;;;;3.25;3.00;;;;;10.70;68.74;102317.69;6219538;22;46179;-80
2023/01/02 21:20:28;;;;;;;;;2.00;2.00;;;;;10.61;68.82;102301.69;6205402;22;44698;-80
2023/01/02 21:22:54;;;;;;;;;5.00;4.75;;;;;10.53;68.98;102298.00;6172032;22;45411;-80
2023/01/02 21:25:20;;;;;;;;;5.25;4.00;;;;;10.54;69.01;102295.41;6180672;22;45359;-81
2023/01/02 21:27:45;;;;;;;;;6.00;4.75;;;;;10.56;68.95;102296.34;6188742;22;46671;-81
2023/01/02 21:30:11;;;;;;;;;6.25;4.75;;;;;10.59;69.17;102303.41;6184584;22;45352;-81
2023/01/02 21:32:36;;;;;;;;;4.00;3.00;;;;;10.64;69.23;102314.94;6184846;22;45768;-80
2023/01/02 21:35:02;;;;;;;;;4.50;4.50;;;;;10.62;69.20;102313.13;6184756;22;45374;-80
2023/01/02 21:37:28;;;;;;;;;6.75;5.50;;;;;10.47;69.63;102290.84;6215683;22;45431;-81
2023/01/02 21:40:04;;;;;;;;;4.50;3.25;;;;;10.42;69.30;102279.34;6222482;22;45344;-81
2023/01/02 21:42:30;;;;;;;;;5.00;4.25;;;;;10.57;69.38;102308.63;6162850;22;45651;-81
2023/01/02 21:44:55;;;;;;;;;4.75;4.00;;;;;10.61;69.29;102312.22;6189990;22;46014;-81
2023/01/02 21:47:21;;;;;;;;;4.00;3.75;;;;;10.57;69.48;102299.84;6184599;22;46130;-81
2023/01/02 21:49:47;;;;;;;;;2.75;2.75;;;;;10.54;69.58;102302.44;6189250;22;45663;-80
2023/01/02 21:52:13;;;;;;;;;4.75;4.25;;;;;10.46;69.92;102290.84;6227119;22;45274;-82
2023/01/02 21:54:38;;;;;;;;;6.00;4.00;;;;;10.56;69.71;102309.50;6190124;22;45402;-81
2023/01/02 21:57:04;;;;;;;;;6.00;4.00;;;;;10.50;69.82;102303.19;6213947;22;46114;-79
2023/01/02 21:59:29;;;;;;;;;3.00;3.00;;;;;10.43;70.19;102296.94;6212410;22;45480;-81
2023/01/02 22:01:55;;;;;;;;;2.67;2.67;;;;;10.44;70.10;102300.44;6216574;22;45545;-82
2023/01/02 22:04:22;;;;;;;;;4.50;4.00;;;;;10.43;70.37;102299.56;6210923;22;45510;-81
2023/01/02 22:06:48;;;;;;;;;4.00;4.00;;;;;10.47;70.67;102305.78;6217327;22;45840;-82
2023/01/02 22:09:14;;;;;;;;;3.00;3.00;;;;;10.45;70.68;102299.56;6217125;22;45630;-80
2023/01/02 22:11:55;;;;;;;;;5.25;3.50;;;;;10.43;70.65;102301.31;6212776;22;45719;-82
2023/01/02 22:14:29;;;;;;;;;5.25;4.00;;;;;10.43;70.73;102304.81;6210622;22;45530;-80
2023/01/02 22:16:57;;;;;;;;;3.00;3.00;;;;;10.46;70.85;102311.91;6211203;22;46909;-80
2023/01/02 22:19:24;;;;;;;;;6.75;5.00;;;;;10.44;70.69;102310.97;6212372;22;45328;-80
2023/01/02 22:21:49;;;;;;;;;3.67;3.67;;;;;10.48;71.03;102321.63;6212000;22;45637;-81
2023/01/02 22:24:16;;;;;;;;;4.50;4.25;;;;;10.44;71.07;102313.59;6211827;22;45288;-80
2023/01/02 22:26:44;;;;;;;;;4.00;4.00;;;;;10.38;70.89;102299.47;6235939;22;46876;-82
2023/01/02 22:29:12;;;;;;;;;5.25;5.25;;;;;10.42;70.96;102303.03;6210510;22;45934;-82
2023/01/02 22:31:38;;;;;;;;;5.75;4.25;;;;;10.55;70.97;102336.69;6211438;22;45391;-82
2023/01/02 22:34:04;;;;;;;;;5.00;3.50;;;;;10.47;71.36;102316.31;6204311;22;45700;-82
2023/01/02 22:36:30;;;;;;;;;3.50;3.50;;;;;10.41;71.06;102303.00;6211083;22;47083;-81
2023/01/02 22:38:57;;;;;;;;;5.33;5.00;;;;;10.47;71.06;102313.69;6208552;22;45478;-82
2023/01/02 22:41:24;;;;;;;;;2.67;2.67;;;;;10.40;70.96;102307.41;6213192;22;45339;-82
2023/01/02 22:43:49;;;;;;;;;11.00;8.50;;;;;10.55;70.95;102338.44;6219895;22;45481;-82
2023/01/02 22:46:28;;;;;;;;;35.00;30.00;;;;;10.50;70.92;102332.16;6216504;22;45750;-82
2023/01/02 22:48:54;;;;;;;;;3.50;3.50;;;;;10.48;71.10;102323.38;6220820;22;44867;-82
2023/01/02 22:51:21;;;;;;;;;9.00;9.00;;;;;10.57;71.07;102342.00;6210554;22;45707;-81
2023/01/02 22:53:46;;;;;;;;;6.00;4.00;;;;;10.58;70.98;102335.84;6211165;22;45817;-81
2023/01/02 22:56:18;;;;;;;;;4.00;2.75;;;;;10.48;71.11;102324.25;6188519;22;46840;-81
2023/01/02 22:58:45;;;;;;;;;4.75;2.00;;;;;10.43;71.10;102317.13;6186107;22;45333;-81
2023/01/02 23:01:23;;;;;;;;;3.25;3.25;;;;;10.57;71.16;102336.72;6185656;22;45585;-81
2023/01/02 23:03:49;;;;;;;;;4.33;4.00;;;;;10.48;71.03;102333.91;6213287;22;45730;-81
2023/01/02 23:06:14;;;;;;;;;3.00;3.00;;;;;10.54;71.15;102347.19;6184924;22;47003;-82
2023/01/02 23:08:40;;;;;;;;;5.00;3.33;;;;;10.46;71.29;102328.59;6212937;22;45407;-81
2023/01/02 23:11:07;;;;;;;;;3.75;3.75;;;;;10.54;71.24;102339.28;6186026;22;45396;-80
2023/01/02 23:13:33;;;;;;;;;5.00;4.75;;;;;10.55;71.20;102341.94;6186672;22;45625;-80
2023/01/02 23:21:30;;;;;;;;;4.33;3.00;;;;;10.40;71.25;102331.09;6216066;22;45386;-80
2023/01/02 23:23:56;;;;;;;;;5.25;3.75;;;;;10.46;71.21;102347.03;6196111;22;45808;-80
2023/01/02 23:26:25;;;;;;;;;5.00;5.00;;;;;10.28;71.20;102315.00;6189426;22;47014;-81
2023/01/02 23:28:54;;;;;;;;;4.75;3.50;;;;;10.36;71.30;102322.22;6185839;22;45680;-82
2023/01/02 23:31:20;;;;;;;;;5.00;5.00;;;;;10.44;71.35;102342.56;6186634;22;45325;-81
2023/01/02 23:33:45;;;;;;;;;3.00;3.00;;;;;10.38;71.10;102331.03;6213128;22;45465;-81
2023/01/02 23:36:13;;;;;;;;;6.25;5.50;;;;;10.42;71.46;102350.41;6213101;22;45761;-81
2023/01/02 23:38:39;;;;;;;;;1.75;1.25;;;;;10.28;71.17;102315.88;6213270;22;45422;-81
2023/01/02 23:41:04;;;;;;;;;5.00;5.00;;;;;10.41;71.71;102350.41;6212985;22;45561;-81
2023/01/02 23:43:30;;;;;;;;;6.25;4.75;;;;;10.35;71.53;102338.88;6212871;22;45813;-81
2023/01/02 23:45:55;;;;;;;;;6.25;5.00;;;;;10.12;71.59;102306.72;6213355;22;45522;-82
2023/01/02 23:48:21;;;;;;;;;4.75;4.75;;;;;10.25;71.66;102336.84;6213624;22;45328;-82
2023/01/02 23:51:05;;;;;;;;;6.00;6.00;;;;;10.27;71.71;102348.34;6200838;22;44780;-81
2023/01/02 23:53:33;;;;;;;;;7.00;5.75;;;;;10.31;71.50;102360.72;6194544;22;44810;-81
2023/01/02 23:55:59;;;;;;;;;5.00;5.00;;;;;10.24;71.74;102356.13;6198915;22;46598;-81
2023/01/02 23:58:24;;;;;;;;;11.50;8.00;;;;;10.15;71.72;102343.63;6216759;22;45806;-79
